Time;durP1;ratioP1;P1;durP2;ratioP2;P2;SDS_P1;SDS_P2;PMS_P1;PMS_P2;Temp;Humidity;BMP_temperature;BMP_pressure;BME280_temperature;BME280_humidity;BME280_pressure;Samples;Min_cycle;Max_cycle;Signal;HPM_P1;HPM_P2
2023/06/28 00:02:23;;;;;;;9.50;7.00;;;;;;;22.12;60.14;99278.21;104571;1273;59196;-75
2023/06/28 00:04:52;;;;;;;9.00;6.80;;;;;;;22.11;60.17;99274.71;104666;1266;59442;-74
2023/06/28 00:07:20;;;;;;;10.20;7.00;;;;;;;22.14;60.06;99283.23;104698;1273;59917;-75
2023/06/28 00:16:03;;;;;;;9.80;7.40;;;;;;;22.15;59.97;99270.02;102630;1291;600601;-74
2023/06/28 00:18:32;;;;;;;8.80;7.90;;;;;;;22.11;60.04;99277.00;104719;1270;59148;-75
2023/06/28 00:21:02;;;;;;;10.50;8.20;;;;;;;22.08;60.12;99277.07;104753;1272;59248;-75
2023/06/28 00:23:31;;;;;;;9.90;7.40;;;;;;;22.04;60.09;99278.38;105479;1254;62085;-74
2023/06/28 00:25:59;;;;;;;9.30;7.30;;;;;;;22.00;60.18;99279.10;105449;1260;59257;-71
2023/06/28 00:28:26;;;;;;;9.30;7.80;;;;;;;21.99;60.15;99281.89;105530;1254;63693;-74
2023/06/28 00:30:54;;;;;;;13.00;8.10;;;;;;;22.00;60.25;99285.19;105732;1257;59645;-76
2023/06/28 00:33:22;;;;;;;9.60;7.60;;;;;;;21.96;60.39;99289.95;105764;1256;59240;-76
2023/06/28 00:35:50;;;;;;;8.10;6.90;;;;;;;21.90;60.58;99296.05;105749;1254;63343;-76
2023/06/28 00:38:17;;;;;;;9.00;6.80;;;;;;;21.84;60.52;99299.26;105967;1254;59222;-74
2023/06/28 00:40:45;;;;;;;10.40;7.30;;;;;;;21.80;60.66;99292.45;105566;1254;65686;-76
2023/06/28 00:43:12;;;;;;;8.80;7.00;;;;;;;21.76;60.55;99296.27;105672;1253;60779;-75
2023/06/28 00:45:40;;;;;;;9.10;7.00;;;;;;;21.73;60.51;99304.57;105777;1259;59637;-74
2023/06/28 00:48:07;;;;;;;10.00;7.10;;;;;;;21.72;60.48;99313.50;105689;1254;64172;-74
2023/06/28 00:50:35;;;;;;;8.30;7.20;;;;;;;21.69;60.51;99322.29;105595;1254;59716;-77
2023/06/28 00:53:03;;;;;;;7.90;6.50;;;;;;;21.65;60.65;99336.62;105342;1254;63303;-76
2023/06/28 00:55:31;;;;;;;7.80;6.60;;;;;;;21.62;60.71;99331.36;105394;1253;59604;-76
2023/06/28 00:58:00;;;;;;;6.60;5.70;;;;;;;21.59;60.78;99322.53;105470;1260;59643;-73
2023/06/28 01:00:28;;;;;;;6.50;5.80;;;;;;;21.59;60.96;99318.27;105550;1254;65272;-76
2023/06/28 01:09:52;;;;;;;6.40;5.60;;;;;;;21.66;61.48;99313.59;102597;1291;599922;-76
2023/06/28 01:12:19;;;;;;;5.90;5.20;;;;;;;21.67;61.72;99316.02;104523;1272;59187;-76
2023/06/28 01:22:25;;;;;;;6.70;5.60;;;;;;;21.75;61.78;99310.25;102761;1291;600061;-74
2023/06/28 01:24:56;;;;;;;7.60;5.80;;;;;;;21.71;61.89;99308.02;104773;1266;59361;-74
2023/06/28 01:27:24;;;;;;;5.60;4.70;;;;;;;21.73;61.93;99310.03;104898;1271;59297;-73
2023/06/28 01:29:56;;;;;;;6.50;5.50;;;;;;;21.73;62.01;99312.30;104752;1269;64366;-75
2023/06/28 01:32:24;;;;;;;6.00;5.10;;;;;;;21.71;62.02;99311.69;105119;1268;59310;-74
2023/06/28 01:34:52;;;;;;;9.80;5.80;;;;;;;21.70;62.13;99310.03;104724;1266;175606;-74
2023/06/28 01:37:22;;;;;;;6.20;5.60;;;;;;;21.69;62.13;99306.85;105092;1260;59357;-75
2023/06/28 01:39:50;;;;;;;10.10;5.80;;;;;;;21.69;62.11;99305.77;105224;1265;59244;-74
2023/06/28 01:48:33;;;;;;;7.20;5.20;;;;;;;21.73;62.04;99291.25;105590;1289;599922;-71
2023/06/28 01:51:00;;;;;;;7.30;5.20;;;;;;;21.73;62.07;99289.52;106537;1267;59260;-74
2023/06/28 01:53:28;;;;;;;6.10;5.20;;;;;;;21.76;61.98;99292.05;104681;1272;59321;-75
2023/06/28 01:55:55;;;;;;;9.30;5.40;;;;;;;21.76;62.08;99292.17;104912;1272;62114;-74
2023/06/28 01:58:22;;;;;;;5.80;5.20;;;;;;;21.76;62.11;99292.02;104933;1273;59315;-73
2023/06/28 02:07:01;;;;;;;7.00;5.30;;;;;;;21.78;62.03;99302.33;102749;1292;601344;-72
2023/06/28 02:09:28;;;;;;;7.20;5.00;;;;;;;21.70;62.16;99299.52;104820;1270;59286;-74
2023/06/28 02:11:56;;;;;;;7.00;5.30;;;;;;;21.68;62.27;99308.06;104605;1267;59267;-73
2023/06/28 02:14:23;;;;;;;5.70;5.10;;;;;;;21.63;62.40;99311.71;104955;1266;65168;-73
2023/06/28 02:16:52;;;;;;;5.20;4.70;;;;;;;21.60;62.50;99313.80;104828;1268;59292;-74
2023/06/28 02:19:20;;;;;;;6.20;5.30;;;;;;;21.59;62.61;99322.65;104768;1270;62871;-74
2023/06/28 02:21:48;;;;;;;5.60;5.00;;;;;;;21.56;62.68;99329.70;104819;1265;174839;-74
2023/06/28 02:24:18;;;;;;;7.10;5.00;;;;;;;21.54;62.69;99327.96;104903;1263;59328;-73
2023/06/28 02:26:46;;;;;;;6.80;4.80;;;;;;;21.50;62.90;99327.64;104896;1263;70369;-74
2023/06/28 02:29:15;;;;;;;6.80;5.40;;;;;;;21.48;62.73;99333.45;104970;1263;59241;-74
2023/06/28 02:31:43;;;;;;;6.90;5.10;;;;;;;21.44;62.80;99337.54;104774;1267;63714;-74
2023/06/28 02:34:10;;;;;;;6.30;5.10;;;;;;;21.44;62.79;99343.48;104918;1265;59734;-74
2023/06/28 02:36:38;;;;;;;6.40;5.10;;;;;;;21.42;62.72;99346.05;104916;1263;59650;-75
2023/06/28 02:39:05;;;;;;;6.50;4.50;;;;;;;21.39;62.78;99348.09;105129;1263;62946;-74
2023/06/28 02:41:33;;;;;;;6.10;5.10;;;;;;;21.41;62.78;99350.89;104918;1264;59621;-75
2023/06/28 02:44:00;;;;;;;6.50;4.70;;;;;;;21.37;62.78;99351.67;104811;1269;64258;-73
2023/06/28 02:46:28;;;;;;;5.20;4.70;;;;;;;21.32;62.97;99347.11;104929;1269;59727;-75
2023/06/28 02:48:56;;;;;;;6.10;5.00;;;;;;;21.32;62.99;99346.27;105127;1263;59643;-75
2023/06/28 02:51:24;;;;;;;9.50;5.20;;;;;;;21.30;62.89;99345.84;104842;1264;64075;-75
2023/06/28 02:53:51;;;;;;;6.70;5.20;;;;;;;21.25;62.94;99351.39;104750;1270;59654;-75
2023/06/28 02:56:19;;;;;;;6.60;4.90;;;;;;;21.21;63.06;99351.15;104964;1266;62713;-75
2023/06/28 02:59:13;;;;;;;7.00;4.90;;;;;;;21.22;63.23;99349.48;104779;1267;59737;-75
2023/06/28 03:01:40;;;;;;;6.70;4.20;;;;;;;21.19;63.22;99352.58;104811;1271;59554;-75
2023/06/28 03:04:08;;;;;;;7.00;4.80;;;;;;;21.16;63.16;99357.10;104757;1272;64095;-75
2023/06/28 03:06:36;;;;;;;7.00;4.50;;;;;;;21.13;63.12;99354.80;108797;1264;58129;-74
2023/06/28 03:09:03;;;;;;;6.40;4.40;;;;;;;21.11;63.05;99354.39;108832;1265;64720;-74
2023/06/28 03:11:31;;;;;;;6.00;4.40;;;;;;;21.11;62.94;99360.30;108813;1260;57348;-75
2023/06/28 03:14:01;;;;;;;8.40;4.30;;;;;;;21.14;62.82;99354.80;108921;1260;57454;-72
2023/06/28 03:16:29;;;;;;;6.10;4.00;;;;;;;21.15;62.72;99352.39;108996;1260;62881;-75
2023/06/28 03:18:56;;;;;;;6.60;4.10;;;;;;;21.17;62.50;99350.52;108902;1262;60356;-74
2023/06/28 03:21:24;;;;;;;4.90;4.10;;;;;;;21.18;62.26;99351.34;108934;1260;63776;-75
2023/06/28 03:23:52;;;;;;;6.30;3.80;;;;;;;21.15;62.25;99353.27;108988;1260;57313;-75
2023/06/28 03:26:20;;;;;;;8.40;4.10;;;;;;;21.15;62.25;99354.13;108946;1259;57487;-75
2023/06/28 03:28:47;;;;;;;8.20;3.60;;;;;;;21.16;62.13;99348.66;108981;1259;64140;-75
2023/06/28 03:31:15;;;;;;;6.30;3.90;;;;;;;21.20;62.15;99340.58;109099;1257;58293;-75
2023/06/28 03:33:42;;;;;;;7.50;3.90;;;;;;;21.21;62.05;99342.96;109026;1257;63814;-75
2023/06/28 03:36:10;;;;;;;4.50;3.80;;;;;;;21.22;62.04;99341.27;108968;1257;57372;-74
2023/06/28 03:38:37;;;;;;;8.60;4.00;;;;;;;21.23;61.97;99342.63;109105;1257;57203;-75
2023/06/28 03:41:05;;;;;;;5.90;4.10;;;;;;;21.20;61.73;99341.82;109102;1257;63019;-75
2023/06/28 03:43:33;;;;;;;6.70;4.00;;;;;;;21.20;62.02;99345.99;109055;1257;57408;-75
2023/06/28 03:46:00;;;;;;;6.30;4.10;;;;;;;21.21;61.88;99348.79;109122;1257;62461;-74
2023/06/28 03:48:28;;;;;;;5.10;3.90;;;;;;;21.23;62.02;99355.89;108971;1259;57751;-74
2023/06/28 03:50:55;;;;;;;8.20;4.00;;;;;;;21.21;61.93;99361.23;109074;1257;57264;-74
2023/06/28 03:53:23;;;;;;;4.80;3.90;;;;;;;21.20;62.01;99360.12;109075;1257;64148;-76
2023/06/28 03:55:51;;;;;;;7.60;3.80;;;;;;;21.19;62.06;99359.18;109088;1257;57372;-75
2023/06/28 03:58:19;;;;;;;5.40;3.60;;;;;;;21.14;62.00;99362.64;108968;1259;63775;-74
2023/06/28 04:00:46;;;;;;;6.70;3.70;;;;;;;21.10;61.92;99370.09;109005;1260;57359;-76
2023/06/28 04:03:15;;;;;;;6.50;3.60;;;;;;;21.08;62.09;99378.41;109060;1259;57290;-75
2023/06/28 04:05:43;;;;;;;5.50;3.70;;;;;;;21.11;61.98;99377.05;108993;1259;63135;-75
2023/06/28 04:08:11;;;;;;;6.00;4.00;;;;;;;21.13;62.00;99371.43;109015;1260;57433;-76
2023/06/28 04:10:38;;;;;;;6.10;3.70;;;;;;;21.10;62.01;99369.46;109057;1259;63792;-75
2023/06/28 04:13:06;;;;;;;5.30;4.10;;;;;;;21.10;61.95;99364.35;108943;1259;57307;-76
2023/06/28 04:15:33;;;;;;;5.30;3.80;;;;;;;21.12;62.04;99356.91;109025;1259;57448;-76
2023/06/28 04:18:01;;;;;;;5.40;3.40;;;;;;;21.17;61.97;99351.92;108984;1258;64130;-75
2023/06/28 04:20:28;;;;;;;7.70;4.20;;;;;;;21.21;61.79;99352.27;109118;1259;58227;-74
2023/06/28 04:22:56;;;;;;;7.70;3.90;;;;;;;21.20;61.57;99356.35;109096;1258;63727;-75
2023/06/28 04:25:23;;;;;;;6.70;4.00;;;;;;;21.21;61.66;99358.95;109019;1258;57384;-75
2023/06/28 04:27:51;;;;;;;3.90;3.50;;;;;;;21.24;61.46;99362.84;109051;1258;57227;-76
2023/06/28 04:30:18;;;;;;;8.20;3.90;;;;;;;21.24;61.27;99364.45;109099;1258;64145;-75
2023/06/28 04:32:46;;;;;;;5.00;3.50;;;;;;;21.25;61.23;99369.94;109070;1258;58334;-72
2023/06/28 04:35:14;;;;;;;4.10;3.30;;;;;;;21.29;61.03;99370.47;109069;1259;63689;-77
2023/06/28 04:37:43;;;;;;;6.10;3.60;;;;;;;21.32;61.02;99367.73;109051;1258;57266;-74
2023/06/28 04:40:11;;;;;;;5.60;3.60;;;;;;;21.38;60.97;99368.48;109036;1260;57425;-75
2023/06/28 04:42:39;;;;;;;6.00;3.30;;;;;;;21.45;60.68;99376.61;109087;1258;64171;-75
2023/06/28 04:45:09;;;;;;;5.50;3.50;;;;;;;21.48;60.07;99383.74;108958;1260;57412;-76
2023/06/28 04:47:37;;;;;;;6.90;3.30;;;;;;;21.48;59.79;99378.25;109013;1260;63764;-75
2023/06/28 04:50:05;;;;;;;4.10;3.10;;;;;;;21.48;59.62;99384.41;108956;1260;57285;-76
2023/06/28 04:52:33;;;;;;;5.00;3.30;;;;;;;21.44;59.26;99385.15;108915;1258;57756;-75
2023/06/28 04:55:00;;;;;;;5.30;3.30;;;;;;;21.43;59.32;99386.48;109039;1259;64118;-74
2023/06/28 04:57:28;;;;;;;6.40;3.70;;;;;;;21.40;59.10;99385.41;109110;1259;58167;-73
2023/06/28 04:59:57;;;;;;;4.90;3.10;;;;;;;21.38;58.83;99380.91;108944;1260;64337;-76
2023/06/28 05:02:25;;;;;;;7.60;3.40;;;;;;;21.35;58.84;99374.17;109035;1260;57274;-76
2023/06/28 05:04:53;;;;;;;6.30;3.50;;;;;;;21.31;58.84;99369.72;109097;1260;59607;-74
2023/06/28 05:07:20;;;;;;;5.30;3.20;;;;;;;21.29;58.75;99373.70;109149;1260;62868;-75
2023/06/28 05:09:48;;;;;;;7.90;3.50;;;;;;;21.29;58.74;99373.37;109128;1259;58406;-75
2023/06/28 05:12:16;;;;;;;8.60;3.40;;;;;;;21.31;58.69;99377.61;109106;1259;62457;-75
2023/06/28 05:14:43;;;;;;;7.90;3.40;;;;;;;21.29;58.70;99380.77;109077;1259;57333;-75
2023/06/28 05:17:10;;;;;;;6.10;3.80;;;;;;;21.26;58.77;99381.47;109155;1259;57217;-74
2023/06/28 05:19:38;;;;;;;7.00;3.50;;;;;;;21.27;58.93;99380.44;109123;1260;62859;-73
2023/06/28 05:22:06;;;;;;;7.90;3.20;;;;;;;21.28;58.99;99372.75;109062;1260;57231;-74
2023/06/28 05:24:33;;;;;;;6.70;3.60;;;;;;;21.26;58.96;99364.98;109056;1259;62519;-74
2023/06/28 05:27:00;;;;;;;5.30;3.40;;;;;;;21.15;59.09;99367.96;108980;1260;57318;-73
2023/06/28 05:29:28;;;;;;;6.90;3.50;;;;;;;21.06;59.20;99370.54;109070;1259;57234;-75
2023/06/28 05:31:58;;;;;;;9.30;3.50;;;;;;;21.04;59.50;99367.27;109091;1258;64307;-74
2023/06/28 05:34:25;;;;;;;6.90;3.50;;;;;;;21.04;59.52;99369.38;109192;1260;56865;-74
2023/06/28 05:36:53;;;;;;;6.50;3.60;;;;;;;21.02;59.58;99367.40;109153;1259;62685;-73
2023/06/28 05:39:21;;;;;;;5.50;3.50;;;;;;;21.02;59.74;99362.19;109158;1260;57353;-74
2023/06/28 05:41:48;;;;;;;5.20;3.30;;;;;;;21.03;59.66;99359.92;109019;1259;57413;-75
2023/06/28 05:44:20;;;;;;;8.10;3.60;;;;;;;21.06;59.60;99359.92;109005;1260;64275;-74
2023/06/28 05:46:48;;;;;;;5.10;3.00;;;;;;;21.07;59.55;99364.73;109035;1259;58157;-75
2023/06/28 05:49:15;;;;;;;5.40;3.80;;;;;;;21.08;59.50;99366.06;108990;1263;62449;-75
2023/06/28 05:51:43;;;;;;;6.30;3.70;;;;;;;21.12;59.42;99360.41;109004;1259;57395;-75
2023/06/28 05:54:10;;;;;;;6.10;3.40;;;;;;;21.18;59.30;99356.66;109028;1260;57242;-73
2023/06/28 05:56:38;;;;;;;6.50;3.50;;;;;;;21.25;59.09;99357.09;108995;1260;64146;-75
2023/06/28 05:59:05;;;;;;;5.50;3.60;;;;;;;21.34;58.73;99356.31;109029;1259;58127;-75
2023/06/28 06:01:33;;;;;;;5.80;3.40;;;;;;;21.41;58.67;99361.02;108999;1260;63716;-76
2023/06/28 06:04:00;;;;;;;5.60;3.60;;;;;;;21.51;58.47;99364.09;108980;1260;57356;-75
2023/06/28 06:06:28;;;;;;;6.80;3.90;;;;;;;21.61;58.30;99373.83;108961;1260;57486;-76
2023/06/28 06:08:55;;;;;;;5.90;3.40;;;;;;;21.64;58.00;99370.38;108932;1260;64098;-75
2023/06/28 06:11:26;;;;;;;6.90;3.10;;;;;;;21.64;58.06;99375.34;108990;1260;58169;-75
2023/06/28 06:13:53;;;;;;;5.00;3.60;;;;;;;21.70;57.73;99381.13;108967;1260;63833;-76
2023/06/28 06:16:20;;;;;;;6.00;3.50;;;;;;;21.79;57.45;99376.17;108973;1263;58221;-75
2023/06/28 06:18:48;;;;;;;7.50;3.70;;;;;;;21.87;57.36;99379.34;109059;1260;58414;-75
2023/06/28 06:21:15;;;;;;;5.30;3.10;;;;;;;21.94;57.42;99378.08;109078;1260;64920;-75
2023/06/28 06:23:43;;;;;;;7.40;3.70;;;;;;;22.02;57.37;99377.68;109046;1260;58710;-78
2023/06/28 06:26:10;;;;;;;6.50;3.80;;;;;;;22.11;56.92;99378.55;109008;1260;62523;-78
2023/06/28 06:28:38;;;;;;;5.40;3.80;;;;;;;22.14;56.41;99375.78;108988;1263;58144;-80
2023/06/28 06:31:06;;;;;;;6.90;3.30;;;;;;;22.19;55.98;99382.23;108995;1263;58111;-80
2023/06/28 06:33:35;;;;;;;5.60;3.40;;;;;;;22.21;55.47;99383.71;109033;1260;64935;-79
2023/06/28 06:36:02;;;;;;;6.90;3.20;;;;;;;22.26;55.52;99383.33;108974;1260;58193;-79
2023/06/28 06:38:30;;;;;;;5.80;2.90;;;;;;;22.33;54.86;99386.33;109013;1260;62500;-77
2023/06/28 06:40:57;;;;;;;4.00;3.00;;;;;;;22.38;54.38;99387.99;109032;1260;58148;-78
2023/06/28 06:43:24;;;;;;;11.50;3.00;;;;;;;22.45;54.01;99391.73;109038;1260;58228;-80
2023/06/28 06:45:52;;;;;;;4.40;2.90;;;;;;;22.51;53.72;99390.23;108990;1260;63638;-77
2023/06/28 06:48:19;;;;;;;4.50;2.60;;;;;;;22.59;53.02;99395.95;109025;1260;58312;-79
2023/06/28 06:50:47;;;;;;;3.10;2.80;;;;;;;22.65;52.21;99397.95;108993;1260;62466;-79
2023/06/28 06:53:15;;;;;;;4.80;2.70;;;;;;;22.70;52.26;99396.27;108994;1260;58142;-79
2023/06/28 06:55:42;;;;;;;3.60;2.50;;;;;;;22.78;52.21;99394.70;108967;1260;58228;-77
2023/06/28 06:58:10;;;;;;;4.20;2.70;;;;;;;22.93;52.25;99393.97;109011;1260;64943;-78
2023/06/28 07:00:37;;;;;;;12.90;2.80;;;;;;;23.11;52.02;99396.40;108922;1260;60429;-77
2023/06/28 07:03:05;;;;;;;4.40;2.50;;;;;;;23.21;50.74;99400.91;108978;1260;63956;-80
2023/06/28 07:05:33;;;;;;;5.80;2.40;;;;;;;23.17;49.78;99404.80;108947;1260;58211;-79
2023/06/28 07:08:00;;;;;;;3.90;2.40;;;;;;;23.11;49.66;99408.32;108957;1260;58218;-76
2023/06/28 07:10:28;;;;;;;4.70;2.30;;;;;;;23.09;49.81;99406.00;108936;1260;63646;-78
2023/06/28 07:12:56;;;;;;;5.40;2.60;;;;;;;23.16;49.37;99408.06;108973;1260;58129;-77
2023/06/28 07:15:23;;;;;;;8.30;2.40;;;;;;;23.21;48.79;99410.31;108941;1260;62528;-78
2023/06/28 07:17:53;;;;;;;4.80;2.50;;;;;;;23.22;48.87;99403.29;108917;1260;58139;-78
2023/06/28 07:20:20;;;;;;;4.90;2.20;;;;;;;23.30;48.89;99399.66;108963;1260;58083;-77
2023/06/28 07:22:48;;;;;;;4.30;2.30;;;;;;;23.41;48.62;99399.05;108967;1260;63850;-79
2023/06/28 07:25:15;;;;;;;4.90;3.30;;;;;;;23.49;48.29;99407.29;108948;1260;58235;-79
2023/06/28 07:27:43;;;;;;;4.90;2.10;;;;;;;23.56;47.93;99408.55;108922;1262;71136;-78
2023/06/28 07:30:10;;;;;;;4.00;2.40;;;;;;;23.59;47.52;99407.48;108941;1260;63234;-78
2023/06/28 07:32:38;;;;;;;8.60;2.50;;;;;;;23.62;47.48;99415.90;108916;1260;58231;-77
2023/06/28 07:35:07;;;;;;;3.90;2.30;;;;;;;23.61;46.71;99419.33;108808;1260;64960;-77
2023/06/28 07:37:35;;;;;;;3.50;2.20;;;;;;;23.60;46.98;99419.46;108948;1260;58328;-77
2023/06/28 07:40:03;;;;;;;4.60;2.30;;;;;;;23.63;46.86;99420.05;108939;1260;62924;-75
2023/06/28 07:42:30;;;;;;;7.10;2.60;;;;;;;23.68;46.76;99416.95;108870;1260;58156;-78
2023/06/28 07:44:58;;;;;;;6.00;2.30;;;;;;;23.74;46.78;99421.41;108954;1260;58106;-75
2023/06/28 07:47:25;;;;;;;4.70;2.20;;;;;;;23.83;46.97;99428.50;108944;1260;63699;-76
2023/06/28 07:49:53;;;;;;;3.20;2.10;;;;;;;23.90;46.60;99426.77;108961;1260;58515;-77
2023/06/28 07:52:20;;;;;;;2.60;2.00;;;;;;;23.91;46.35;99431.98;108936;1260;63744;-71
2023/06/28 07:54:47;;;;;;;4.50;2.50;;;;;;;23.82;45.51;99433.20;108957;1260;58121;-71
2023/06/28 07:57:15;;;;;;;3.20;2.40;;;;;;;23.69;45.77;99436.23;108966;1260;58049;-76
2023/06/28 07:59:43;;;;;;;3.60;2.40;;;;;;;23.55;46.14;99439.38;108922;1260;64884;-72
2023/06/28 08:02:10;;;;;;;3.90;2.70;;;;;;;23.46;46.27;99442.52;108922;1261;58360;-71
2023/06/28 08:04:39;;;;;;;3.70;2.50;;;;;;;23.44;46.57;99442.26;108886;1265;62468;-73
2023/06/28 08:07:07;;;;;;;6.50;2.40;;;;;;;23.48;46.74;99442.58;108733;1260;58248;-71
2023/06/28 08:09:34;;;;;;;6.30;2.30;;;;;;;23.58;46.45;99447.23;108935;1261;58078;-70
2023/06/28 08:12:02;;;;;;;5.60;2.40;;;;;;;23.66;46.02;99446.71;108897;1261;64968;-70
2023/06/28 08:14:29;;;;;;;4.50;2.10;;;;;;;23.83;45.64;99447.88;108888;1260;58216;-71
2023/06/28 08:16:57;;;;;;;3.80;2.40;;;;;;;24.01;45.13;99449.96;108902;1265;62533;-70
2023/06/28 08:19:25;;;;;;;3.80;2.00;;;;;;;24.20;45.15;99446.50;108849;1260;58076;-70
2023/06/28 08:21:53;;;;;;;4.40;2.20;;;;;;;24.39;44.69;99446.77;108879;1261;58049;-70
2023/06/28 08:24:20;;;;;;;4.70;1.90;;;;;;;24.47;43.65;99448.41;108799;1261;64937;-70
2023/06/28 08:26:48;;;;;;;4.00;2.30;;;;;;;24.45;43.55;99444.98;108805;1265;58503;-70
2023/06/28 08:29:16;;;;;;;4.30;2.40;;;;;;;24.47;43.88;99443.73;108639;1262;63823;-69
2023/06/28 08:31:44;;;;;;;2.60;2.10;;;;;;;24.54;43.96;99444.90;108752;1266;58217;-70
2023/06/28 08:34:11;;;;;;;6.90;2.00;;;;;;;24.61;42.91;99445.61;108759;1260;58220;-71
2023/06/28 08:36:39;;;;;;;3.80;2.10;;;;;;;24.69;42.59;99446.59;108723;1260;65029;-70
2023/06/28 08:39:06;;;;;;;4.10;1.90;;;;;;;24.76;42.35;99445.83;108660;1263;58346;-71
2023/06/28 08:41:34;;;;;;;3.10;2.20;;;;;;;24.76;42.45;99434.64;108735;1263;63720;-71
2023/06/28 08:44:02;;;;;;;5.00;2.10;;;;;;;24.81;42.83;99437.71;108790;1261;58182;-73
2023/06/28 08:46:29;;;;;;;7.10;5.70;;;;;;;24.90;42.43;99442.58;108644;1260;58287;-72
2023/06/28 08:48:59;;;;;;;4.50;2.50;;;;;;;24.94;42.23;99439.51;108758;1261;65124;-71
2023/06/28 08:51:26;;;;;;;4.50;2.20;;;;;;;24.95;42.53;99435.48;108809;1263;58234;-71
2023/06/28 08:53:54;;;;;;;3.20;1.90;;;;;;;24.97;42.37;99432.77;108796;1262;63031;-71
2023/06/28 08:56:22;;;;;;;4.00;2.40;;;;;;;24.99;42.34;99435.83;108737;1260;58452;-70
2023/06/28 08:58:51;;;;;;;4.70;2.50;;;;;;;25.05;42.41;99434.10;108714;1264;58095;-71
2023/06/28 09:01:23;;;;;;;3.60;2.40;;;;;;;25.14;42.11;99430.39;108709;1263;63697;-73
2023/06/28 09:03:51;;;;;;;3.00;2.10;;;;;;;25.10;41.72;99427.67;108699;1263;58244;-71
2023/06/28 09:06:19;;;;;;;6.60;2.40;;;;;;;25.06;42.24;99428.17;108609;1262;63757;-71
2023/06/28 09:08:47;;;;;;;3.90;2.40;;;;;;;25.12;42.27;99430.02;108701;1264;58289;-72
2023/06/28 09:11:15;;;;;;;7.50;5.20;;;;;;;25.18;41.96;99429.23;108719;1263;58186;-74
2023/06/28 09:13:43;;;;;;;14.00;11.30;;;;;;;25.27;42.02;99422.86;108744;1262;64959;-71
2023/06/28 09:16:11;;;;;;;4.50;2.20;;;;;;;25.41;41.37;99426.20;108697;1263;58622;-71
2023/06/28 09:18:39;;;;;;;2.60;1.90;;;;;;;25.46;40.67;99432.30;108753;1263;63750;-71
2023/06/28 09:21:07;;;;;;;3.30;2.10;;;;;;;25.45;41.19;99438.02;108691;1261;58160;-72
2023/06/28 09:23:36;;;;;;;3.80;2.10;;;;;;;25.51;41.38;99443.11;108664;1263;58511;-70
2023/06/28 09:26:05;;;;;;;4.30;2.00;;;;;;;25.55;40.88;99442.70;108623;1261;63667;-70
2023/06/28 09:28:34;;;;;;;3.20;1.90;;;;;;;25.52;40.29;99442.97;108646;1263;58283;-70
2023/06/28 09:31:05;;;;;;;2.90;1.80;;;;;;;25.50;39.88;99438.57;108696;1263;63844;-70
2023/06/28 09:33:34;;;;;;;4.10;2.00;;;;;;;25.56;39.86;99438.23;108782;1263;58114;-70
2023/06/28 09:36:02;;;;;;;2.60;1.70;;;;;;;25.61;39.00;99443.52;108880;1266;58046;-72
2023/06/28 09:38:30;;;;;;;2.70;1.60;;;;;;;25.63;37.59;99441.94;108880;1263;64949;-71
2023/06/28 09:40:58;;;;;;;2.90;1.60;;;;;;;25.57;37.54;99435.16;108894;1263;58178;-72
2023/06/28 09:43:33;;;;;;;3.20;1.90;;;;;;;25.54;37.89;99432.94;108876;1264;63848;-75
2023/06/28 09:46:15;;;;;;;12.10;4.30;;;;;;;25.55;37.80;99430.95;108810;1268;58108;-75
2023/06/28 09:48:51;;;;;;;15.90;5.70;;;;;;;25.57;37.63;99432.54;108750;1263;58126;-74
2023/06/28 09:51:19;;;;;;;4.30;2.10;;;;;;;25.60;38.02;99430.25;108812;1263;67010;-75
2023/06/28 09:53:52;;;;;;;14.00;2.90;;;;;;;25.59;38.36;99426.51;108815;1263;58248;-71
2023/06/28 09:56:20;;;;;;;;;;;;;;;25.61;38.87;99428.12;108748;1265;62591;-72
2023/06/28 09:58:49;;;;;;;8.40;2.60;;;;;;;25.68;39.13;99433.65;108873;1262;58204;-72
2023/06/28 10:01:20;;;;;;;2.60;2.00;;;;;;;25.75;39.47;99439.58;108779;1263;58287;-72
2023/06/28 10:03:51;;;;;;;12.40;5.10;;;;;;;25.83;39.08;99432.56;108782;1260;63675;-71
2023/06/28 10:06:23;;;;;;;3.40;1.70;;;;;;;25.97;39.76;99438.55;108786;1261;66512;-70
2023/06/28 10:08:54;;;;;;;6.30;2.00;;;;;;;26.20;38.88;99434.33;108840;1260;62541;-70
2023/06/28 10:11:26;;;;;;;2.60;1.60;;;;;;;26.38;38.80;99433.77;108806;1266;58143;-71
2023/06/28 10:13:56;;;;;;;3.80;2.00;;;;;;;26.65;38.48;99431.95;108781;1260;58262;-71
2023/06/28 10:16:28;;;;;;;4.00;1.90;;;;;;;26.88;37.36;99427.59;108864;1263;64178;-72
2023/06/28 10:18:58;;;;;;;4.40;1.80;;;;;;;26.99;37.05;99427.73;108787;1260;58304;-71
2023/06/28 10:21:29;;;;;;;2.10;1.60;;;;;;;27.03;36.31;99431.55;108863;1260;63128;-70
2023/06/28 10:24:00;;;;;;;3.60;1.60;;;;;;;27.11;36.52;99425.31;108735;1263;58114;-71
2023/06/28 10:26:32;;;;;;;4.70;2.20;;;;;;;27.30;36.09;99426.40;108818;1260;58290;-70
2023/06/28 10:29:03;;;;;;;3.60;1.70;;;;;;;27.49;35.69;99421.98;108868;1261;63633;-70
2023/06/28 10:31:34;;;;;;;5.10;1.50;;;;;;;27.62;35.69;99420.84;108871;1260;58225;-72
2023/06/28 10:34:04;;;;;;;4.50;1.90;;;;;;;27.60;35.02;99418.09;108799;1261;62666;-75
2023/06/28 10:36:34;;;;;;;4.10;2.90;;;;;;;27.51;34.60;99409.74;108913;1260;58130;-71
2023/06/28 10:39:07;;;;;;;5.70;1.80;;;;;;;27.42;34.01;99410.95;108858;1260;58089;-74
2023/06/28 10:41:37;;;;;;;2.50;1.40;;;;;;;27.20;34.66;99410.45;108892;1260;65304;-73
2023/06/28 10:44:08;;;;;;;3.30;1.80;;;;;;;27.15;34.85;99411.42;108878;1260;58221;-72
2023/06/28 10:46:38;;;;;;;2.90;1.60;;;;;;;27.20;34.47;99404.27;108806;1261;62452;-73
2023/06/28 10:49:18;;;;;;;4.40;2.90;;;;;;;27.09;33.79;99397.25;108752;1263;58087;-72
2023/06/28 10:51:49;;;;;;;4.30;1.80;;;;;;;26.95;34.03;99398.30;108876;1266;58101;-73
2023/06/28 10:54:19;;;;;;;11.20;8.10;;;;;;;27.08;34.18;99400.39;108838;1261;64907;-72
2023/06/28 10:56:50;;;;;;;2.40;1.90;;;;;;;27.34;33.53;99401.55;108933;1260;58301;-73
2023/06/28 11:06:42;;;;;;;3.30;1.20;;;;;;;27.40;32.81;99392.23;102796;1291;599915;-72
2023/06/28 11:10:14;;;;;;;4.90;1.40;;;;;;;27.52;32.42;99385.47;102633;1291;607744;-75
2023/06/28 11:12:47;;;;;;;3.90;1.60;;;;;;;27.49;32.52;99392.53;105871;1260;59264;-77
2023/06/28 11:15:14;;;;;;;2.80;1.30;;;;;;;27.35;32.38;99386.15;106123;1254;59453;-74
2023/06/28 11:17:41;;;;;;;4.70;1.50;;;;;;;27.20;32.85;99381.33;106005;1254;63369;-71
2023/06/28 11:20:12;;;;;;;2.90;1.40;;;;;;;27.14;32.85;99380.57;105741;1254;59235;-71
2023/06/28 11:22:53;;;;;;;5.40;1.70;;;;;;;27.10;33.00;99381.11;105750;1260;173318;-75
2023/06/28 11:25:21;;;;;;;12.10;2.10;;;;;;;27.13;33.36;99383.16;105892;1258;59443;-72
2023/06/28 11:27:48;;;;;;;19.10;8.50;;;;;;;27.20;33.50;99387.78;105895;1254;59228;-73
2023/06/28 11:30:16;;;;;;;4.80;1.70;;;;;;;27.32;33.27;99386.89;106170;1254;63620;-71
2023/06/28 11:32:44;;;;;;;11.40;1.50;;;;;;;27.41;33.09;99383.89;106275;1255;59274;-72
2023/06/28 11:35:12;;;;;;;3.00;1.20;;;;;;;27.60;33.12;99376.22;105706;1253;63968;-71
2023/06/28 11:37:39;;;;;;;5.90;1.40;;;;;;;27.87;32.76;99373.91;105773;1258;59586;-71
2023/06/28 11:40:06;;;;;;;1.90;1.20;;;;;;;28.07;31.71;99378.09;105834;1252;59640;-71
2023/06/28 11:42:35;;;;;;;3.20;1.10;;;;;;;28.00;31.19;99372.44;105858;1253;63854;-71
2023/06/28 11:45:01;;;;;;;4.40;1.40;;;;;;;27.79;31.94;99374.02;105954;1256;59649;-71
2023/06/28 11:47:28;;;;;;;2.80;1.20;;;;;;;27.64;32.28;99374.58;105637;1259;63834;-72
2023/06/28 11:49:55;;;;;;;3.60;1.30;;;;;;;27.63;32.32;99378.09;105620;1254;60330;-72
2023/06/28 11:52:23;;;;;;;6.20;1.20;;;;;;;27.80;32.00;99377.88;105939;1253;59664;-72
2023/06/28 11:54:51;;;;;;;2.20;1.20;;;;;;;27.95;30.85;99382.55;105841;1256;64191;-73
2023/06/28 11:57:18;;;;;;;2.60;1.10;;;;;;;27.98;30.96;99381.92;105859;1256;59729;-69
2023/06/28 11:59:51;;;;;;;6.10;1.30;;;;;;;28.04;30.66;99378.17;105825;1253;63852;-72
2023/06/28 12:02:18;;;;;;;2.20;1.00;;;;;;;28.12;30.44;99378.98;105826;1256;59609;-71
2023/06/28 12:04:54;;;;;;;1.50;1.00;;;;;;;28.27;30.34;99378.39;105791;1256;59602;-71
2023/06/28 12:07:21;;;;;;;7.80;1.10;;;;;;;28.47;30.27;99378.42;105743;1257;64439;-73
2023/06/28 12:09:53;;;;;;;2.40;1.10;;;;;;;28.62;29.70;99381.34;105727;1257;59499;-73
2023/06/28 12:12:20;;;;;;;6.00;1.20;;;;;;;28.73;29.38;99379.61;105681;1253;63922;-72